Time;durP1;ratioP1;P1;durP2;ratioP2;P2;SDS_P1;SDS_P2;PMS_P1;PMS_P2;Temp;Humidity;BMP_temperature;BMP_pressure;BME280_temperature;BME280_humidity;BME280_pressure;Samples;Min_cycle;Max_cycle;Signal;HPM_P1;HPM_P2
2022/12/02 00:00:25;;;;;;;17.13;4.10;;;;;;;-0.53;100.00;101713.22;6161866;23;20013;-94
2022/12/02 00:02:54;;;;;;;13.38;4.35;;;;;;;-0.60;100.00;101713.16;6162866;23;20336;-95
2022/12/02 00:05:27;;;;;;;18.35;4.63;;;;;;;-0.72;100.00;101678.38;6161740;23;20336;-95
2022/12/02 00:07:53;;;;;;;28.65;5.68;;;;;;;-0.68;100.00;101682.66;6162113;23;20088;-94
2022/12/02 00:10:31;;;;;;;24.25;5.07;;;;;;;-0.68;100.00;101677.59;6161098;23;20005;-93
2022/12/02 00:13:21;;;;;;;12.32;4.72;;;;;;;-0.48;100.00;101687.91;6161926;23;20095;-95
2022/12/02 00:15:54;;;;;;;31.95;5.95;;;;;;;-0.47;100.00;101695.50;6162418;23;20009;-95
2022/12/02 00:18:20;;;;;;;7.93;4.30;;;;;;;-0.71;100.00;101650.53;6162911;23;20028;-95
2022/12/02 00:20:46;;;;;;;22.65;4.45;;;;;;;-0.63;100.00;101677.59;6161643;23;20012;-95
2022/12/02 00:23:11;;;;;;;11.07;4.90;;;;;;;-0.72;100.00;101660.66;6161687;23;20396;-94
2022/12/02 00:25:37;;;;;;;105.03;8.52;;;;;;;-0.70;100.00;101653.91;6161721;23;20013;-95
2022/12/02 00:28:03;;;;;;;45.50;6.38;;;;;;;-0.63;100.00;101683.56;6162259;23;20013;-95
2022/12/02 00:30:29;;;;;;;128.38;8.35;;;;;;;-0.73;100.00;101658.94;6162355;23;20515;-94
2022/12/02 00:32:54;;;;;;;61.63;7.18;;;;;;;-0.82;100.00;101647.03;6162401;23;19997;-94
2022/12/02 00:35:22;;;;;;;58.10;5.35;;;;;;;-0.78;100.00;101665.66;6161650;23;20009;-94
2022/12/02 00:37:47;;;;;;;36.08;5.60;;;;;;;-0.83;100.00;101659.69;6162446;23;20027;-95
2022/12/02 00:40:13;;;;;;;21.88;4.85;;;;;;;-0.88;100.00;101652.91;6162124;23;20440;-95
2022/12/02 00:42:39;;;;;;;17.90;4.70;;;;;;;-0.95;100.00;101642.69;6160962;23;20497;-94
2022/12/02 00:47:49;;;;;;;79.38;6.60;;;;;;;-1.01;100.00;101656.16;6188031;23;20040;-95
2022/12/02 00:50:14;;;;;;;64.80;5.22;;;;;;;-0.81;100.00;101683.38;6162178;23;20005;-94
2022/12/02 00:52:40;;;;;;;92.75;8.07;;;;;;;-1.13;100.00;101645.91;6161987;23;20040;-95
2022/12/02 00:55:06;;;;;;;67.95;6.15;;;;;;;-1.03;100.00;101657.81;6162418;23;20088;-94
2022/12/02 00:57:32;;;;;;;86.80;6.43;;;;;;;-1.02;100.00;101654.47;6161849;23;20001;-94
2022/12/02 00:59:57;;;;;;;21.63;4.22;;;;;;;-0.83;100.00;101654.63;6161514;23;20017;-95
2022/12/02 01:02:23;;;;;;;111.80;9.48;;;;;;;-0.93;100.00;101658.75;6161978;23;20129;-95
2022/12/02 01:04:48;;;;;;;51.78;6.00;;;;;;;-1.02;100.00;101644.34;6161508;23;20079;-94
2022/12/02 01:07:14;;;;;;;19.55;4.18;;;;;;;-0.88;100.00;101657.97;6160648;23;20005;-95
2022/12/02 01:09:40;;;;;;;59.47;7.13;;;;;;;-0.78;100.00;101663.13;6161935;23;20001;-94
2022/12/02 01:12:06;;;;;;;35.97;5.47;;;;;;;-0.98;100.00;101646.03;6161718;23;20005;-94
2022/12/02 01:14:31;;;;;;;7.07;4.05;;;;;;;-0.84;100.00;101637.72;6161256;23;20001;-94
2022/12/02 01:16:57;;;;;;;38.20;5.47;;;;;;;-0.70;100.00;101647.16;6161802;23;20008;-94
2022/12/02 01:19:22;;;;;;;51.50;7.15;;;;;;;-0.69;100.00;101663.19;6162472;23;20015;-95
2022/12/02 01:21:48;;;;;;;10.75;4.80;;;;;;;-0.60;100.00;101645.53;6161623;23;20005;-94
2022/12/02 01:24:13;;;;;;;78.38;6.85;;;;;;;-0.49;100.00;101658.28;6161499;23;20009;-94
2022/12/02 01:26:39;;;;;;;12.23;4.65;;;;;;;-0.39;100.00;101657.53;6160231;23;20017;-96
2022/12/02 01:29:04;;;;;;;18.23;5.38;;;;;;;-0.60;100.00;101622.72;6159511;23;20020;-95
2022/12/02 01:31:30;;;;;;;16.30;5.50;;;;;;;-0.18;100.00;101666.13;6159272;23;20001;-95
2022/12/02 01:33:55;;;;;;;8.57;4.65;;;;;;;-0.33;100.00;101633.91;6159447;23;20012;-93
2022/12/02 01:36:21;;;;;;;23.88;4.80;;;;;;;-0.31;100.00;101639.84;6159339;23;20012;-95
2022/12/02 01:38:46;;;;;;;18.27;4.80;;;;;;;-0.32;100.00;101643.19;6159560;23;20017;-94
2022/12/02 01:41:12;;;;;;;12.25;4.57;;;;;;;-0.27;100.00;101656.75;6160906;23;20052;-95
2022/12/02 01:43:37;;;;;;;15.18;4.68;;;;;;;-0.32;100.00;101653.34;6160030;23;20032;-94
2022/12/02 01:46:03;;;;;;;24.52;5.30;;;;;;;-0.46;100.00;101632.97;6160037;23;20005;-94
2022/12/02 01:48:29;;;;;;;41.47;7.05;;;;;;;-0.51;100.00;101622.78;6161865;23;20008;-94
2022/12/02 01:50:56;;;;;;;74.38;6.03;;;;;;;-0.61;100.00;101625.22;6161700;23;20001;-94
2022/12/02 01:53:23;;;;;;;54.35;6.30;;;;;;;-0.47;100.00;101656.63;6161700;23;20005;-95
2022/12/02 01:55:48;;;;;;;18.70;4.50;;;;;;;-0.40;100.00;101652.44;6161776;23;20005;-93
2022/12/02 01:58:15;;;;;;;19.13;5.20;;;;;;;-0.46;100.00;101628.75;6161147;23;20012;-95
2022/12/02 02:00:40;;;;;;;39.20;5.80;;;;;;;-0.54;100.00;101637.97;6161072;23;20013;-94
2022/12/02 02:03:06;;;;;;;24.20;4.72;;;;;;;-0.55;100.00;101633.75;6160736;23;20498;-94
2022/12/02 02:05:33;;;;;;;24.73;6.13;;;;;;;-0.61;100.00;101623.56;6162289;23;20001;-93
2022/12/02 02:08:05;;;;;;;49.65;6.22;;;;;;;-0.68;100.00;101615.06;6162359;23;20088;-94
2022/12/02 02:10:32;;;;;;;11.38;4.65;;;;;;;-0.55;100.00;101621.06;6161664;23;20005;-95
2022/12/02 02:12:58;;;;;;;30.95;5.85;;;;;;;-0.49;100.00;101621.13;6160739;23;20088;-94
2022/12/02 02:15:24;;;;;;;21.83;5.57;;;;;;;-0.55;100.00;101616.00;6161502;23;20016;-96
2022/12/02 02:17:53;;;;;;;13.55;5.75;;;;;;;-0.47;100.00;101618.56;6161651;23;20001;-95
2022/12/02 02:20:21;;;;;;;50.22;7.43;;;;;;;-0.56;100.00;101626.09;6161007;23;20009;-94
2022/12/02 02:23:05;;;;;;;28.30;5.95;;;;;;;-0.35;100.00;101643.19;6160332;23;20028;-94
2022/12/02 02:25:42;;;;;;;17.75;4.90;;;;;;;-0.49;100.00;101616.06;6159811;23;20028;-95
2022/12/02 02:28:08;;;;;;;54.15;6.82;;;;;;;-0.73;100.00;101598.97;6161046;23;20075;-95
2022/12/02 02:30:35;;;;;;;102.05;7.70;;;;;;;-0.54;100.00;101619.38;6161987;23;20448;-93
2022/12/02 02:33:04;;;;;;;9.88;5.18;;;;;;;-0.48;100.00;101607.59;6160686;23;20092;-94
2022/12/02 02:35:31;;;;;;;76.50;8.00;;;;;;;-0.52;100.00;101608.41;6161188;23;20005;-94
2022/12/02 02:37:57;;;;;;;35.50;5.88;;;;;;;-0.65;100.00;101593.94;6161354;23;20001;-94
2022/12/02 02:40:25;;;;;;;10.95;4.90;;;;;;;-0.48;100.00;101605.06;6159980;23;20047;-95
2022/12/02 02:42:52;;;;;;;61.58;7.20;;;;;;;-0.57;100.00;101597.38;6161258;23;20424;-95
2022/12/02 02:45:21;;;;;;;21.65;5.22;;;;;;;-0.71;100.00;101589.69;6161496;23;20060;-94
2022/12/02 02:47:47;;;;;;;21.73;5.53;;;;;;;-0.53;100.00;101606.72;6162736;23;20009;-95
2022/12/02 02:50:13;;;;;;;44.85;5.25;;;;;;;-0.54;100.00;101591.47;6163626;23;20008;-93
2022/12/02 02:52:39;;;;;;;57.45;6.35;;;;;;;-0.56;100.00;101595.69;6164538;23;20344;-94
2022/12/02 02:55:05;;;;;;;63.35;6.10;;;;;;;-0.53;100.00;101601.63;6163157;23;20002;-94
2022/12/02 02:57:33;;;;;;;34.20;5.07;;;;;;;-0.45;100.00;101600.00;6162541;23;19997;-94
2022/12/02 02:59:59;;;;;;;17.00;4.68;;;;;;;-0.45;100.00;101601.69;6162674;23;20107;-95
2022/12/02 03:02:26;;;;;;;77.90;6.72;;;;;;;-0.67;100.00;101572.81;6161325;23;20368;-94
2022/12/02 03:04:52;;;;;;;35.17;4.82;;;;;;;-0.40;100.00;101611.88;6160335;23;20067;-94
2022/12/02 03:07:18;;;;;;;97.18;6.43;;;;;;;-0.78;100.00;101576.94;6160491;23;20527;-94
2022/12/02 03:09:45;;;;;;;23.10;4.60;;;;;;;-0.51;100.00;101592.34;6160131;23;20013;-95
2022/12/02 03:12:11;;;;;;;48.67;5.88;;;;;;;-0.65;100.00;101594.78;6161164;23;20005;-92
2022/12/02 03:14:36;;;;;;;21.35;3.88;;;;;;;-0.64;100.00;101585.50;6162658;23;20001;-93
2022/12/02 03:17:03;;;;;;;21.80;3.78;;;;;;;-0.60;100.00;101587.22;6161755;23;20009;-94
2022/12/02 03:19:31;;;;;;;56.90;5.95;;;;;;;-0.37;100.00;101604.28;6161428;23;20428;-94
2022/12/02 03:21:58;;;;;;;6.93;3.90;;;;;;;-0.62;100.00;101573.69;6161896;23;20005;-95
2022/12/02 03:24:23;;;;;;;54.70;5.45;;;;;;;-0.53;100.00;101601.63;6162298;23;20005;-95
2022/12/02 03:26:50;;;;;;;4.78;3.05;;;;;;;-0.39;100.00;101603.41;6161259;23;20016;-95
2022/12/02 03:29:16;;;;;;;8.10;3.55;;;;;;;-0.58;100.00;101574.56;6161558;23;20008;-94
2022/12/02 03:31:43;;;;;;;50.50;5.63;;;;;;;-0.67;100.00;101575.34;6161289;23;20001;-94
2022/12/02 03:34:09;;;;;;;15.65;4.68;;;;;;;-0.58;100.00;101588.09;6161585;23;20009;-95
2022/12/02 03:36:35;;;;;;;18.23;3.92;;;;;;;-0.69;100.00;101564.31;6162140;23;20079;-94
2022/12/02 03:39:01;;;;;;;116.93;8.70;;;;;;;-0.81;100.00;101565.09;6187292;23;19997;-93
2022/12/02 03:41:27;;;;;;;50.75;4.80;;;;;;;-0.56;100.00;101588.94;6161130;23;20005;-95
2022/12/02 03:43:55;;;;;;;52.20;6.60;;;;;;;-0.83;100.00;101548.16;6162085;23;20005;-93
2022/12/02 03:46:21;;;;;;;5.10;3.55;;;;;;;-0.58;100.00;101570.34;6161888;23;20012;-95
2022/12/02 03:48:47;;;;;;;10.57;3.75;;;;;;;-0.68;100.00;101554.22;6162179;23;20343;-93
2022/12/02 03:51:13;;;;;;;6.85;3.80;;;;;;;-0.60;100.00;101544.13;6161250;23;20518;-94
2022/12/02 03:53:39;;;;;;;12.25;4.15;;;;;;;-0.31;100.00;101563.75;6161124;23;20048;-94
2022/12/02 03:56:07;;;;;;;38.90;4.72;;;;;;;-0.43;100.00;101569.59;6161180;23;19997;-95
2022/12/02 03:58:57;;;;;;;89.57;9.02;;;;;;;-0.43;100.00;101580.56;6161557;23;20008;-94
2022/12/02 04:01:23;;;;;;;15.35;2.90;;;;;;;-0.55;100.00;101555.13;6160180;23;20428;-94
2022/12/02 04:03:48;;;;;;;10.63;4.03;;;;;;;-0.56;100.00;101548.38;6160048;23;20040;-94
2022/12/02 04:06:14;;;;;;;14.63;4.55;;;;;;;-0.60;100.00;101551.72;6159783;23;20082;-93
2022/12/02 04:08:39;;;;;;;13.93;4.13;;;;;;;-0.59;100.00;101561.00;6159760;23;20012;-94
2022/12/02 04:11:05;;;;;;;12.27;3.40;;;;;;;-0.71;100.00;101549.13;6161047;23;20009;-94
2022/12/02 04:13:31;;;;;;;102.15;6.47;;;;;;;-0.71;100.00;101563.47;6160594;23;20037;-94
2022/12/02 04:15:56;;;;;;;46.20;5.03;;;;;;;-0.77;100.00;101553.31;6160030;23;20466;-94
2022/12/02 04:18:22;;;;;;;50.33;4.90;;;;;;;-0.60;100.00;101576.22;6161129;23;20452;-94
2022/12/02 04:20:48;;;;;;;6.78;3.08;;;;;;;-0.58;100.00;101580.47;6160838;23;20503;-94
2022/12/02 04:23:13;;;;;;;103.93;6.35;;;;;;;-0.67;100.00;101567.72;6161178;23;20036;-94
2022/12/02 04:25:39;;;;;;;115.65;7.57;;;;;;;-0.88;100.00;101546.47;6161096;23;20040;-93
2022/12/02 04:28:05;;;;;;;75.30;7.22;;;;;;;-0.77;100.00;101550.75;6161085;23;20052;-94
2022/12/02 04:30:30;;;;;;;40.03;5.93;;;;;;;-0.58;100.00;101555.13;6161271;23;20447;-94
2022/12/02 04:32:56;;;;;;;105.05;7.10;;;;;;;-0.72;100.00;101541.50;6161678;23;20001;-94
2022/12/02 04:35:21;;;;;;;109.03;7.32;;;;;;;-0.57;100.00;101553.44;6161089;23;20051;-94
2022/12/02 04:37:47;;;;;;;55.95;5.97;;;;;;;-0.46;100.00;101554.34;6160848;23;20011;-93
2022/12/02 04:40:12;;;;;;;48.15;5.13;;;;;;;-0.48;100.00;101541.66;6160733;23;20436;-93
2022/12/02 04:42:38;;;;;;;94.32;5.95;;;;;;;-0.60;100.00;101541.56;6161556;23;20313;-94
2022/12/02 04:45:04;;;;;;;23.67;4.00;;;;;;;-0.45;100.00;101561.09;6161443;23;20001;-94
2022/12/02 04:47:30;;;;;;;64.65;5.10;;;;;;;-0.69;100.00;101546.59;6160224;23;20443;-94
2022/12/02 04:49:56;;;;;;;59.95;6.82;;;;;;;-0.66;100.00;101551.66;6159749;23;20440;-95
2022/12/02 04:52:21;;;;;;;57.88;5.30;;;;;;;-0.71;100.00;101549.13;6160797;23;20020;-94
2022/12/02 04:54:47;;;;;;;46.72;6.25;;;;;;;-0.71;100.00;101536.44;6161281;23;20009;-94
2022/12/02 04:57:12;;;;;;;43.42;5.90;;;;;;;-0.61;100.00;101549.16;6160766;23;20011;-94
2022/12/02 04:59:38;;;;;;;70.60;6.95;;;;;;;-0.73;100.00;101529.66;6160422;23;20011;-94
2022/12/02 05:02:03;;;;;;;11.15;3.90;;;;;;;-0.63;100.00;101559.31;6160021;23;20009;-94
2022/12/02 05:04:29;;;;;;;20.10;4.20;;;;;;;-0.57;100.00;101566.94;6159396;23;20000;-94
2022/12/02 05:06:54;;;;;;;55.40;6.13;;;;;;;-0.66;100.00;101554.19;6159118;23;20075;-94
2022/12/02 05:09:20;;;;;;;18.10;4.13;;;;;;;-0.73;100.00;101542.31;6160014;23;20009;-94
2022/12/02 05:11:46;;;;;;;5.70;3.28;;;;;;;-0.73;100.00;101544.84;6159612;23;20440;-94
2022/12/02 05:14:11;;;;;;;44.60;5.60;;;;;;;-0.72;100.00;101533.91;6186361;23;20072;-93
2022/12/02 05:16:37;;;;;;;34.38;4.70;;;;;;;-0.82;100.00;101522.00;6158948;23;20016;-94
2022/12/02 05:19:02;;;;;;;24.10;5.15;;;;;;;-0.91;100.00;101508.41;6160074;23;20001;-94
2022/12/02 05:21:27;;;;;;;19.60;4.38;;;;;;;-0.56;100.00;101552.56;6159984;23;20012;-95
2022/12/02 05:23:53;;;;;;;110.68;8.35;;;;;;;-0.77;100.00;101516.13;6159982;23;20468;-95
2022/12/02 05:26:18;;;;;;;7.30;3.65;;;;;;;-0.80;100.00;101518.63;6159509;23;20013;-94
2022/12/02 05:28:44;;;;;;;8.13;3.53;;;;;;;-0.60;100.00;101546.66;6159769;23;20509;-93
2022/12/02 05:31:09;;;;;;;6.55;3.33;;;;;;;-0.61;100.00;101550.03;6159205;23;20005;-93
2022/12/02 05:33:35;;;;;;;19.52;4.05;;;;;;;-0.74;100.00;101535.56;6160670;23;20006;-95
2022/12/02 05:36:00;;;;;;;25.80;4.53;;;;;;;-0.70;100.00;101545.75;6159906;23;20009;-94
2022/12/02 05:38:26;;;;;;;38.50;5.20;;;;;;;-0.79;100.00;101534.69;6160071;23;20009;-93
2022/12/02 05:40:55;;;;;;;17.70;4.55;;;;;;;-0.72;100.00;101549.94;6160579;23;20009;-94
2022/12/02 05:43:25;;;;;;;11.80;4.22;;;;;;;-0.79;100.00;101533.00;6160996;23;20029;-94
2022/12/02 05:45:55;;;;;;;9.63;3.80;;;;;;;-0.70;100.00;101506.88;6160475;23;20001;-94
2022/12/02 05:48:20;;;;;;;17.83;3.80;;;;;;;-0.61;100.00;101513.66;6159839;23;20012;-93
2022/12/02 05:50:46;;;;;;;28.02;6.18;;;;;;;-0.54;100.00;101526.38;6160165;23;20013;-94
2022/12/02 05:53:26;;;;;;;6.55;3.83;;;;;;;-0.57;100.00;101520.47;6159798;23;20490;-94
2022/12/02 05:55:52;;;;;;;23.27;5.13;;;;;;;-0.60;100.00;101513.69;6159713;23;20063;-94
2022/12/02 05:58:18;;;;;;;54.83;6.70;;;;;;;-0.62;100.00;101511.97;6160030;23;20013;-93
2022/12/02 06:00:52;;;;;;;33.03;6.72;;;;;;;-0.78;100.00;101495.81;6159161;23;20139;-93
2022/12/02 06:03:19;;;;;;;42.88;5.13;;;;;;;-0.51;100.00;101536.56;6159312;23;20408;-94
2022/12/02 06:05:46;;;;;;;28.23;5.43;;;;;;;-0.70;100.00;101504.34;6168320;23;20003;-96
2022/12/02 06:08:24;;;;;;;21.90;3.65;;;;;;;-0.72;100.00;101498.41;6162005;23;20013;-96
2022/12/02 06:11:29;;;;;;;61.45;5.85;;;;;;;-0.73;100.00;101524.56;6162915;23;20013;-96
2022/12/02 06:14:01;;;;;;;9.10;3.10;;;;;;;-0.88;100.00;101485.66;6162810;23;20020;-94
2022/12/02 06:16:27;;;;;;;;;;;;;;;-0.72;100.00;101517.00;6163919;23;20012;-95
2022/12/02 06:18:53;;;;;;;10.77;5.40;;;;;;;-0.68;100.00;101500.13;6163791;23;19947;-96
2022/12/02 06:21:21;;;;;;;16.80;6.18;;;;;;;-0.51;100.00;101498.53;6164706;23;20024;-95
2022/12/02 06:23:49;;;;;;;12.52;6.40;;;;;;;-0.62;100.00;101484.94;6164523;23;20297;-95
2022/12/02 06:26:17;;;;;;;13.70;6.68;;;;;;;-0.62;100.00;101481.56;6164360;23;20009;-95
2022/12/02 06:28:45;;;;;;;17.63;5.53;;;;;;;-0.61;100.00;101488.31;6168400;23;20317;-96
2022/12/02 06:31:36;;;;;;;23.00;4.95;;;;;;;-0.56;100.00;101484.97;6166093;23;20016;-96
2022/12/02 06:34:19;;;;;;;29.13;4.07;;;;;;;-0.62;100.00;101474.78;6155777;23;20490;-94
2022/12/02 06:36:44;;;;;;;16.58;4.40;;;;;;;-0.54;100.00;101501.03;6160896;23;20001;-93
2022/12/02 06:39:21;;;;;;;21.17;5.22;;;;;;;-0.67;100.00;101501.81;6161146;23;20068;-94
2022/12/02 06:41:47;;;;;;;20.83;4.63;;;;;;;-0.68;100.00;101502.66;6160469;23;20032;-94
2022/12/02 06:47:36;;;;;;;19.77;4.35;;;;;;;-0.83;100.00;101523.66;6185961;23;20450;-93
2022/12/02 06:50:04;;;;;;;55.58;5.63;;;;;;;-0.84;100.00;101516.91;6160122;23;20084;-93
2022/12/02 06:52:36;;;;;;;7.40;3.70;;;;;;;-0.81;100.00;101526.22;6160814;23;20001;-93
2022/12/02 06:55:02;;;;;;;;;;;;;;;-0.92;100.00;101521.94;6160862;23;20435;-93
2022/12/02 06:57:30;;;;;;;8.85;3.95;;;;;;;-0.83;100.00;101512.69;6161775;23;19915;-93
2022/12/02 06:59:56;;;;;;;6.40;3.40;;;;;;;-0.88;100.00;101503.38;6161844;23;20043;-94
2022/12/02 07:02:27;;;;;;;25.67;6.07;;;;;;;-0.96;100.00;101486.41;6161150;23;20029;-94
2022/12/02 07:04:53;;;;;;;51.35;6.13;;;;;;;-0.91;100.00;101497.44;6162254;23;20000;-94
2022/12/02 07:07:26;;;;;;;40.05;5.68;;;;;;;-0.68;100.00;101525.47;6162236;23;20379;-94
2022/12/02 07:10:19;;;;;;;30.10;5.38;;;;;;;-0.68;100.00;101506.03;6162491;23;20005;-96
2022/12/02 07:12:45;;;;;;;;;;;;;;;-0.60;100.00;101523.00;6162929;23;20373;-95
2022/12/02 07:15:32;;;;;;;7.13;4.22;;;;;;;-0.71;100.00;101489.94;6163013;23;19908;-94
2022/12/02 07:18:01;;;;;;;22.85;5.07;;;;;;;-0.52;100.00;101522.19;6162400;23;20313;-95
2022/12/02 07:20:35;;;;;;;19.98;5.85;;;;;;;-0.72;100.00;101499.25;6164258;23;20013;-93
2022/12/02 07:23:14;;;;;;;24.67;4.60;;;;;;;-0.68;100.00;101492.53;6163280;23;20466;-94
2022/12/02 07:25:51;;;;;;;39.92;5.28;;;;;;;-0.69;100.00;101506.03;6164712;23;20036;-94
2022/12/02 07:28:33;;;;;;;51.28;5.07;;;;;;;-0.65;100.00;101495.06;6162983;23;20009;-94
2022/12/02 07:31:19;;;;;;;24.40;5.40;;;;;;;-0.57;100.00;101526.38;6162772;23;20005;-93
2022/12/02 07:33:44;;;;;;;101.43;11.02;;;;;;;-0.67;100.00;101512.78;6163063;23;20005;-95
2022/12/02 07:36:10;;;;;;;9.00;4.80;;;;;;;-0.70;100.00;101511.94;6162630;23;20055;-94
2022/12/02 07:38:36;;;;;;;22.10;4.38;;;;;;;-0.55;100.00;101518.78;6162506;23;20395;-94
2022/12/02 07:41:03;;;;;;;46.00;6.50;;;;;;;-0.50;100.00;101517.97;6163341;23;20011;-95
2022/12/02 07:43:30;;;;;;;62.75;6.60;;;;;;;-0.66;100.00;101498.44;6162664;23;20001;-94
2022/12/02 07:45:56;;;;;;;22.77;4.53;;;;;;;-0.65;100.00;101503.53;6160999;23;20016;-94
2022/12/02 07:48:21;;;;;;;11.82;4.35;;;;;;;-0.73;100.00;101499.22;6161275;23;20009;-94
2022/12/02 07:50:47;;;;;;;64.20;6.20;;;;;;;-0.70;100.00;101524.63;6161267;23;20012;-95
2022/12/02 07:53:12;;;;;;;33.90;4.78;;;;;;;-0.74;100.00;101507.69;6162398;23;20039;-94
2022/12/02 07:55:38;;;;;;;12.23;3.22;;;;;;;-0.84;100.00;101518.59;6161865;23;20032;-96
2022/12/02 07:58:03;;;;;;;18.42;3.90;;;;;;;-0.92;100.00;101524.47;6161532;23;20432;-93
2022/12/02 08:00:30;;;;;;;34.42;4.68;;;;;;;-0.86;100.00;101516.88;6160911;23;20009;-94
2022/12/02 08:02:55;;;;;;;48.08;4.35;;;;;;;-0.84;100.00;101526.22;6161132;23;20071;-93
2022/12/02 08:05:22;;;;;;;49.10;5.55;;;;;;;-0.76;100.00;101524.56;6161248;23;20420;-93
2022/12/02 08:07:48;;;;;;;10.88;3.60;;;;;;;-0.72;100.00;101531.34;6160343;23;20012;-93
2022/12/02 08:10:14;;;;;;;7.25;4.05;;;;;;;-0.48;100.00;101558.56;6161293;23;20009;-93
2022/12/02 08:12:41;;;;;;;22.10;4.18;;;;;;;-0.60;100.00;101531.44;6162204;23;20429;-94
2022/12/02 08:15:08;;;;;;;24.50;4.50;;;;;;;-0.52;100.00;101557.69;6160877;23;20083;-94
2022/12/02 08:17:34;;;;;;;32.83;4.20;;;;;;;-0.49;100.00;101557.72;6160752;23;20479;-95
2022/12/02 08:20:00;;;;;;;31.35;4.13;;;;;;;-0.62;100.00;101548.31;6160875;23;20044;-94
2022/12/02 08:22:25;;;;;;;40.90;6.97;;;;;;;-0.75;100.00;101516.13;6161044;23;20036;-94
2022/12/02 08:24:51;;;;;;;10.02;3.58;;;;;;;-0.61;100.00;101552.56;6160794;23;20013;-93
2022/12/02 08:27:16;;;;;;;13.00;4.18;;;;;;;-0.53;100.00;101547.53;6160246;23;20062;-94
2022/12/02 08:29:42;;;;;;;40.13;5.10;;;;;;;-0.44;100.00;101550.09;6160042;23;20332;-94
2022/12/02 08:32:08;;;;;;;35.22;4.88;;;;;;;-0.33;100.00;101556.09;6160367;23;20040;-94
2022/12/02 08:34:33;;;;;;;21.88;4.70;;;;;;;-0.44;100.00;101542.50;6160890;23;20222;-93
2022/12/02 08:36:59;;;;;;;25.10;4.18;;;;;;;-0.28;100.00;101563.75;6160250;23;20032;-94
2022/12/02 08:39:24;;;;;;;20.40;4.25;;;;;;;-0.43;100.00;101529.84;6160094;23;20060;-93
2022/12/02 08:41:50;;;;;;;17.45;4.53;;;;;;;-0.25;100.00;101538.38;6160666;23;19997;-93
2022/12/02 08:44:15;;;;;;;13.88;4.70;;;;;;;-0.10;100.00;101548.63;6160622;23;20001;-94
2022/12/02 08:46:41;;;;;;;10.73;4.05;;;;;;;-0.05;100.00;101548.63;6160378;23;20474;-94
2022/12/02 08:49:06;;;;;;;9.63;4.47;;;;;;;0.01;100.00;101552.88;6160186;23;20055;-94
2022/12/02 08:51:33;;;;;;;18.67;6.80;;;;;;;-0.01;100.00;101543.56;6186239;23;19997;-93
2022/12/02 08:53:58;;;;;;;17.42;6.00;;;;;;;0.02;100.00;101534.28;6159600;23;20041;-94
2022/12/02 08:56:24;;;;;;;10.90;5.20;;;;;;;0.15;100.00;101546.19;6159101;23;20009;-93
2022/12/02 09:09:18;;;;;;;15.90;4.47;;;;;;;0.06;100.00;101523.28;6219216;23;20065;-94
2022/12/02 09:31:42;;;;;;;8.13;4.47;;;;;;;0.84;100.00;101519.19;5997274;23;20016;-93
2022/12/02 09:35:11;;;;;;;6.13;3.70;;;;;;;0.95;100.00;101538.66;5981055;23;20425;-92
2022/12/02 09:41:13;;;;;;;9.38;4.95;;;;;;;1.05;100.00;101561.56;6204201;23;20104;-93
2022/12/02 09:43:39;;;;;;;10.75;4.63;;;;;;;0.98;100.00;101564.94;6185930;23;20028;-90
2022/12/02 09:46:08;;;;;;;10.55;3.90;;;;;;;1.03;100.00;101572.56;6185642;23;20426;-91
2022/12/02 09:48:34;;;;;;;8.23;4.35;;;;;;;1.09;100.00;101564.94;6185851;23;20490;-90
2022/12/02 09:51:00;;;;;;;7.30;4.25;;;;;;;0.95;100.00;101571.72;6185671;23;20009;-92
2022/12/02 09:53:32;;;;;;;8.63;4.65;;;;;;;1.24;100.00;101585.28;6187230;23;20001;-93
2022/12/02 09:56:34;;;;;;;7.93;4.50;;;;;;;1.18;100.00;101562.41;6214872;23;20131;-92
2022/12/02 09:59:10;;;;;;;7.47;3.80;;;;;;;1.19;100.00;101553.91;6188718;23;20067;-94
2022/12/02 10:01:47;;;;;;;6.97;4.55;;;;;;;1.18;100.00;101567.47;6216645;23;20008;-91
2022/12/02 10:04:18;;;;;;;7.32;4.05;;;;;;;1.37;100.00;101577.66;6190072;23;20449;-93
2022/12/02 10:06:44;;;;;;;7.38;4.20;;;;;;;1.38;100.00;101559.81;6189951;23;20386;-94
2022/12/02 10:09:16;;;;;;;8.05;4.55;;;;;;;1.68;100.00;101583.50;6190598;23;20008;-93
2022/12/02 10:11:41;;;;;;;;;;;;;;;1.80;100.00;101573.31;6190569;23;20435;-91
2022/12/02 10:14:12;;;;;;;6.00;3.65;;;;;;;1.90;100.00;101575.00;6189576;23;19912;-92
2022/12/02 10:16:38;;;;;;;6.43;3.95;;;;;;;1.93;100.00;101576.69;6190111;23;20095;-90
2022/12/02 10:19:05;;;;;;;6.78;3.53;;;;;;;1.99;100.00;101550.34;6188718;23;20084;-91
2022/12/02 11:24:22;;;;;;;6.53;3.33;;;;;;;4.32;89.13;101549.97;6205789;23;20020;-93
2022/12/02 11:27:01;;;;;;;6.03;4.13;;;;;;;4.17;88.84;101557.00;6192163;23;20012;-95
2022/12/02 11:29:28;;;;;;;7.18;3.95;;;;;;;4.15;88.45;101548.50;6191944;23;20012;-95
2022/12/02 11:32:17;;;;;;;6.82;4.60;;;;;;;4.07;87.52;101540.94;6189126;23;20026;-92
2022/12/02 11:34:46;;;;;;;5.80;3.88;;;;;;;3.75;89.78;101510.66;6190615;23;20083;-95
2022/12/02 11:37:54;;;;;;;6.65;4.47;;;;;;;4.22;90.44;101544.16;6200922;23;20016;-96
2022/12/02 11:40:21;;;;;;;7.93;4.45;;;;;;;4.40;89.81;101537.94;6215097;23;20021;-93
2022/12/02 11:42:47;;;;;;;10.55;6.03;;;;;;;4.42;88.76;101519.16;6189211;23;20454;-93
2022/12/02 11:45:17;;;;;;;10.13;5.55;;;;;;;4.54;88.66;101525.81;6187578;23;20012;-93
2022/12/02 12:30:51;;;;;;;13.93;7.80;;;;;;;5.07;89.76;101461.84;6154551;23;20013;-91
2022/12/02 12:33:17;;;;;;;14.93;9.25;;;;;;;5.26;89.94;101475.13;6128896;23;20001;-92
2022/12/02 12:35:43;;;;;;;10.95;7.32;;;;;;;5.31;88.10;101455.41;6129207;23;20006;-92
2022/12/02 12:38:09;;;;;;;11.43;7.93;;;;;;;5.61;86.32;101484.72;6129049;23;20072;-92
2022/12/02 12:40:35;;;;;;;13.57;8.13;;;;;;;5.74;87.50;101459.69;6154902;23;20005;-93
2022/12/02 12:43:00;;;;;;;10.93;7.25;;;;;;;5.83;86.92;101467.19;6129167;23;20040;-92
2022/12/02 12:45:26;;;;;;;12.18;7.50;;;;;;;5.86;87.54;101441.50;6127846;23;20452;-94
2022/12/02 12:47:52;;;;;;;11.40;7.38;;;;;;;5.87;86.70;101425.22;6127956;23;20005;-94
2022/12/02 12:50:18;;;;;;;11.25;7.35;;;;;;;5.68;88.05;101441.88;6128908;23;20021;-93
2022/12/02 12:56:06;;;;;;;13.27;8.30;;;;;;;5.26;91.48;101454.66;6186089;23;20044;-93
2022/12/02 13:53:22;;;;;;;16.33;10.70;;;;;;;4.35;100.00;101406.81;6178554;22;20020;-95
2022/12/02 13:55:47;;;;;;;15.55;8.60;;;;;;;4.38;100.00;101417.81;6145091;23;20005;-93
2022/12/02 13:58:13;;;;;;;15.07;9.02;;;;;;;4.39;100.00;101429.75;6127716;23;20333;-93
2022/12/02 14:00:38;;;;;;;15.13;9.00;;;;;;;4.29;100.00;101417.97;6128544;23;20037;-93
2022/12/02 14:03:04;;;;;;;13.75;9.20;;;;;;;4.34;100.00;101411.09;6129457;23;20012;-93
2022/12/02 14:05:30;;;;;;;15.90;9.10;;;;;;;4.16;100.00;101417.31;6129194;23;20006;-94
2022/12/02 14:07:55;;;;;;;12.63;8.40;;;;;;;3.99;100.00;101409.06;6128945;23;20012;-94
2022/12/02 14:10:20;;;;;;;13.25;8.50;;;;;;;3.86;100.00;101410.94;6129895;23;20006;-92
2022/12/02 14:12:46;;;;;;;16.50;9.20;;;;;;;3.96;100.00;101419.34;6128524;23;20001;-93
2022/12/02 14:15:11;;;;;;;16.23;9.02;;;;;;;4.20;100.00;101416.41;6128933;23;20497;-93
2022/12/02 14:17:37;;;;;;;14.18;8.68;;;;;;;4.07;100.00;101397.00;6129549;23;20013;-94
2022/12/02 14:20:03;;;;;;;16.13;9.80;;;;;;;4.15;100.00;101400.31;6129583;23;20033;-94
2022/12/02 14:22:28;;;;;;;13.23;8.90;;;;;;;4.05;100.00;101404.72;6129212;23;19998;-93
2022/12/02 14:24:55;;;;;;;11.60;8.20;;;;;;;3.96;100.00;101393.78;6135880;23;20008;-94
2022/12/02 14:27:20;;;;;;;21.48;11.10;;;;;;;4.28;100.00;101400.97;6134729;23;20110;-93
2022/12/02 14:29:46;;;;;;;17.75;9.60;;;;;;;4.50;100.00;101396.34;6135856;23;20015;-94
2022/12/02 14:32:11;;;;;;;16.55;9.30;;;;;;;4.69;100.00;101410.50;6164753;23;20081;-94
2022/12/02 14:34:37;;;;;;;15.05;9.23;;;;;;;4.52;100.00;101404.81;6137899;23;20435;-94
2022/12/02 14:37:02;;;;;;;16.80;9.55;;;;;;;4.65;100.00;101403.72;6133154;23;20009;-93
2022/12/02 14:39:28;;;;;;;17.98;9.55;;;;;;;4.76;100.00;101407.84;6131790;23;20500;-94
2022/12/02 14:41:53;;;;;;;14.30;8.60;;;;;;;4.70;100.00;101404.50;6133546;23;20025;-93